sensor_id;sensor_type;location;lat;lon;timestamp;temperature;humidity
3727;DHT22;1879;45.876;12.300;2022-09-16T00:01:17;23.30;99.90
3727;DHT22;1879;45.876;12.300;2022-09-16T00:03:44;23.40;99.90
3727;DHT22;1879;45.876;12.300;2022-09-16T00:06:18;23.50;99.90
3727;DHT22;1879;45.876;12.300;2022-09-16T00:08:46;23.40;99.90
3727;DHT22;1879;45.876;12.300;2022-09-16T00:11:13;23.60;99.90
3727;DHT22;1879;45.876;12.300;2022-09-16T00:13:41;23.50;99.90
3727;DHT22;1879;45.876;12.300;2022-09-16T00:16:11;23.30;99.90
3727;DHT22;1879;45.876;12.300;2022-09-16T00:18:39;23.10;99.90
3727;DHT22;1879;45.876;12.300;2022-09-16T00:21:08;23.00;99.90
3727;DHT22;1879;45.876;12.300;2022-09-16T00:23:37;22.90;99.90
3727;DHT22;1879;45.876;12.300;2022-09-16T00:26:04;22.90;99.90
3727;DHT22;1879;45.876;12.300;2022-09-16T00:28:32;22.90;99.90
3727;DHT22;1879;45.876;12.300;2022-09-16T00:30:59;22.90;99.90
3727;DHT22;1879;45.876;12.300;2022-09-16T00:33:26;22.80;99.90
3727;DHT22;1879;45.876;12.300;2022-09-16T00:36:04;22.80;99.90
3727;DHT22;1879;45.876;12.300;2022-09-16T00:38:32;22.70;99.90
3727;DHT22;1879;45.876;12.300;2022-09-16T00:41:00;22.70;99.90
3727;DHT22;1879;45.876;12.300;2022-09-16T00:43:27;22.60;99.90
3727;DHT22;1879;45.876;12.300;2022-09-16T00:45:57;22.60;99.90
3727;DHT22;1879;45.876;12.300;2022-09-16T00:48:27;22.50;99.90
3727;DHT22;1879;45.876;12.300;2022-09-16T00:50:59;22.50;99.90
3727;DHT22;1879;45.876;12.300;2022-09-16T00:53:30;22.50;99.90
3727;DHT22;1879;45.876;12.300;2022-09-16T00:56:02;22.50;99.90
3727;DHT22;1879;45.876;12.300;2022-09-16T00:58:33;22.50;99.90
3727;DHT22;1879;45.876;12.300;2022-09-16T01:01:04;22.60;99.90
3727;DHT22;1879;45.876;12.300;2022-09-16T01:03:33;22.60;99.90
3727;DHT22;1879;45.876;12.300;2022-09-16T01:06:02;22.60;99.90
3727;DHT22;1879;45.876;12.300;2022-09-16T01:08:30;22.60;99.90
3727;DHT22;1879;45.876;12.300;2022-09-16T01:10:57;22.60;99.90
3727;DHT22;1879;45.876;12.300;2022-09-16T01:13:26;22.60;99.90
3727;DHT22;1879;45.876;12.300;2022-09-16T01:15:57;22.70;99.90
3727;DHT22;1879;45.876;12.300;2022-09-16T01:18:35;22.70;99.90
3727;DHT22;1879;45.876;12.300;2022-09-16T01:21:20;22.70;99.90
3727;DHT22;1879;45.876;12.300;2022-09-16T01:30:48;22.50;99.90
3727;DHT22;1879;45.876;12.300;2022-09-16T01:33:24;22.30;99.90
3727;DHT22;1879;45.876;12.300;2022-09-16T01:36:09;22.20;99.90
3727;DHT22;1879;45.876;12.300;2022-09-16T01:38:55;22.10;99.90
3727;DHT22;1879;45.876;12.300;2022-09-16T01:41:35;22.00;99.90
3727;DHT22;1879;45.876;12.300;2022-09-16T01:44:10;22.00;99.90
3727;DHT22;1879;45.876;12.300;2022-09-16T01:46:46;22.00;99.90
3727;DHT22;1879;45.876;12.300;2022-09-16T01:49:19;22.10;99.90
3727;DHT22;1879;45.876;12.300;2022-09-16T01:51:51;22.10;99.90
3727;DHT22;1879;45.876;12.300;2022-09-16T01:54:26;22.10;99.90
3727;DHT22;1879;45.876;12.300;2022-09-16T01:56:59;22.10;99.90
3727;DHT22;1879;45.876;12.300;2022-09-16T01:59:32;22.10;99.90
3727;DHT22;1879;45.876;12.300;2022-09-16T02:02:05;22.10;99.90
3727;DHT22;1879;45.876;12.300;2022-09-16T02:04:39;22.20;99.90
3727;DHT22;1879;45.876;12.300;2022-09-16T02:07:09;22.10;99.90
3727;DHT22;1879;45.876;12.300;2022-09-16T02:09:40;22.20;99.90
3727;DHT22;1879;45.876;12.300;2022-09-16T02:12:11;22.30;99.90
3727;DHT22;1879;45.876;12.300;2022-09-16T02:14:42;22.20;99.90
3727;DHT22;1879;45.876;12.300;2022-09-16T02:17:13;22.20;99.90
3727;DHT22;1879;45.876;12.300;2022-09-16T02:19:43;22.20;99.90
3727;DHT22;1879;45.876;12.300;2022-09-16T02:22:14;22.20;99.90
3727;DHT22;1879;45.876;12.300;2022-09-16T02:24:42;22.10;99.90
3727;DHT22;1879;45.876;12.300;2022-09-16T02:27:14;22.10;99.90
3727;DHT22;1879;45.876;12.300;2022-09-16T02:29:46;22.10;99.90
3727;DHT22;1879;45.876;12.300;2022-09-16T02:32:17;22.10;99.90
3727;DHT22;1879;45.876;12.300;2022-09-16T02:34:49;22.00;99.90
3727;DHT22;1879;45.876;12.300;2022-09-16T02:37:19;22.00;99.90
3727;DHT22;1879;45.876;12.300;2022-09-16T02:39:49;22.10;99.90
3727;DHT22;1879;45.876;12.300;2022-09-16T02:42:19;22.10;99.90
3727;DHT22;1879;45.876;12.300;2022-09-16T02:44:46;22.10;99.90
3727;DHT22;1879;45.876;12.300;2022-09-16T02:47:20;22.10;99.90
3727;DHT22;1879;45.876;12.300;2022-09-16T02:49:54;22.20;99.90
3727;DHT22;1879;45.876;12.300;2022-09-16T02:52:28;22.20;99.90
3727;DHT22;1879;45.876;12.300;2022-09-16T02:55:03;22.10;99.90
3727;DHT22;1879;45.876;12.300;2022-09-16T02:57:31;22.10;99.90
3727;DHT22;1879;45.876;12.300;2022-09-16T02:59:58;22.00;99.90
3727;DHT22;1879;45.876;12.300;2022-09-16T03:02:27;22.00;99.90
3727;DHT22;1879;45.876;12.300;2022-09-16T03:04:54;22.00;99.90
3727;DHT22;1879;45.876;12.300;2022-09-16T03:07:21;22.00;99.90
3727;DHT22;1879;45.876;12.300;2022-09-16T03:09:49;22.00;99.90
3727;DHT22;1879;45.876;12.300;2022-09-16T03:12:38;22.10;99.90
3727;DHT22;1879;45.876;12.300;2022-09-16T03:15:18;22.10;99.90
3727;DHT22;1879;45.876;12.300;2022-09-16T03:18:11;22.20;99.90
3727;DHT22;1879;45.876;12.300;2022-09-16T03:20:48;22.30;99.90
3727;DHT22;1879;45.876;12.300;2022-09-16T03:23:25;22.30;99.90
3727;DHT22;1879;45.876;12.300;2022-09-16T03:26:00;22.40;99.90
3727;DHT22;1879;45.876;12.300;2022-09-16T03:28:33;22.40;99.90
3727;DHT22;1879;45.876;12.300;2022-09-16T03:31:06;22.40;99.90
3727;DHT22;1879;45.876;12.300;2022-09-16T03:33:38;22.40;99.90
3727;DHT22;1879;45.876;12.300;2022-09-16T03:36:13;22.40;99.90
3727;DHT22;1879;45.876;12.300;2022-09-16T03:38:42;22.50;99.90
3727;DHT22;1879;45.876;12.300;2022-09-16T03:41:10;22.50;99.90
3727;DHT22;1879;45.876;12.300;2022-09-16T03:43:38;22.50;99.90
3727;DHT22;1879;45.876;12.300;2022-09-16T03:46:09;22.60;99.90
3727;DHT22;1879;45.876;12.300;2022-09-16T03:48:38;22.60;99.90
3727;DHT22;1879;45.876;12.300;2022-09-16T03:51:05;22.60;99.90
3727;DHT22;1879;45.876;12.300;2022-09-16T03:53:32;22.70;99.90
3727;DHT22;1879;45.876;12.300;2022-09-16T03:55:59;22.70;99.90
3727;DHT22;1879;45.876;12.300;2022-09-16T03:58:26;22.80;99.90
3727;DHT22;1879;45.876;12.300;2022-09-16T04:00:53;22.80;99.90
3727;DHT22;1879;45.876;12.300;2022-09-16T04:03:20;22.70;99.90
3727;DHT22;1879;45.876;12.300;2022-09-16T04:05:53;22.70;99.90
3727;DHT22;1879;45.876;12.300;2022-09-16T04:08:21;22.70;99.90
3727;DHT22;1879;45.876;12.300;2022-09-16T04:10:53;22.70;99.90
3727;DHT22;1879;45.876;12.300;2022-09-16T04:13:20;22.70;99.90
3727;DHT22;1879;45.876;12.300;2022-09-16T04:15:47;22.60;99.90
3727;DHT22;1879;45.876;12.300;2022-09-16T04:18:14;22.70;99.90
3727;DHT22;1879;45.876;12.300;2022-09-16T04:20:41;22.70;99.90
3727;DHT22;1879;45.876;12.300;2022-09-16T04:23:10;22.70;99.90
3727;DHT22;1879;45.876;12.300;2022-09-16T04:25:37;22.70;99.90
3727;DHT22;1879;45.876;12.300;2022-09-16T04:28:05;22.80;99.90
3727;DHT22;1879;45.876;12.300;2022-09-16T04:30:33;22.80;99.90
3727;DHT22;1879;45.876;12.300;2022-09-16T04:33:00;22.70;99.90
3727;DHT22;1879;45.876;12.300;2022-09-16T04:35:27;22.70;99.90
3727;DHT22;1879;45.876;12.300;2022-09-16T04:37:54;22.60;99.90
3727;DHT22;1879;45.876;12.300;2022-09-16T04:40:22;22.60;99.90
3727;DHT22;1879;45.876;12.300;2022-09-16T04:42:50;22.60;99.90
3727;DHT22;1879;45.876;12.300;2022-09-16T04:45:17;22.50;99.90
3727;DHT22;1879;45.876;12.300;2022-09-16T04:47:44;22.40;99.90
3727;DHT22;1879;45.876;12.300;2022-09-16T04:50:11;22.40;99.90
3727;DHT22;1879;45.876;12.300;2022-09-16T04:52:38;22.30;99.90
3727;DHT22;1879;45.876;12.300;2022-09-16T04:55:06;22.30;99.90
3727;DHT22;1879;45.876;12.300;2022-09-16T04:57:34;22.20;99.90
3727;DHT22;1879;45.876;12.300;2022-09-16T05:00:03;22.20;99.90
3727;DHT22;1879;45.876;12.300;2022-09-16T05:02:30;22.10;99.90
3727;DHT22;1879;45.876;12.300;2022-09-16T05:04:57;22.10;99.90
3727;DHT22;1879;45.876;12.300;2022-09-16T05:07:24;22.00;99.90
3727;DHT22;1879;45.876;12.300;2022-09-16T05:09:51;22.10;99.90
3727;DHT22;1879;45.876;12.300;2022-09-16T05:12:18;22.10;99.90
3727;DHT22;1879;45.876;12.300;2022-09-16T05:14:46;22.00;99.90
3727;DHT22;1879;45.876;12.300;2022-09-16T05:17:13;22.00;99.90
3727;DHT22;1879;45.876;12.300;2022-09-16T05:19:40;22.10;99.90
3727;DHT22;1879;45.876;12.300;2022-09-16T05:22:07;22.20;99.90
3727;DHT22;1879;45.876;12.300;2022-09-16T05:24:34;22.20;99.90
3727;DHT22;1879;45.876;12.300;2022-09-16T05:27:02;22.40;99.90
3727;DHT22;1879;45.876;12.300;2022-09-16T05:29:29;22.40;99.90
3727;DHT22;1879;45.876;12.300;2022-09-16T05:31:57;22.50;99.90
3727;DHT22;1879;45.876;12.300;2022-09-16T05:34:25;22.50;99.90
3727;DHT22;1879;45.876;12.300;2022-09-16T05:36:53;22.60;99.90
3727;DHT22;1879;45.876;12.300;2022-09-16T05:39:21;22.60;99.90
3727;DHT22;1879;45.876;12.300;2022-09-16T05:41:49;22.70;99.90
3727;DHT22;1879;45.876;12.300;2022-09-16T05:44:18;22.80;99.90
3727;DHT22;1879;45.876;12.300;2022-09-16T05:46:45;22.90;99.90
3727;DHT22;1879;45.876;12.300;2022-09-16T05:49:13;23.00;99.90
3727;DHT22;1879;45.876;12.300;2022-09-16T05:51:45;23.00;99.90
3727;DHT22;1879;45.876;12.300;2022-09-16T05:54:12;22.90;99.90
3727;DHT22;1879;45.876;12.300;2022-09-16T05:56:39;22.90;99.90
3727;DHT22;1879;45.876;12.300;2022-09-16T05:59:09;22.90;99.90
3727;DHT22;1879;45.876;12.300;2022-09-16T06:01:36;23.00;99.90
3727;DHT22;1879;45.876;12.300;2022-09-16T06:04:06;23.10;99.90
3727;DHT22;1879;45.876;12.300;2022-09-16T06:06:36;23.10;99.90
3727;DHT22;1879;45.876;12.300;2022-09-16T06:09:06;23.30;99.90
3727;DHT22;1879;45.876;12.300;2022-09-16T06:11:36;23.30;99.90
3727;DHT22;1879;45.876;12.300;2022-09-16T06:14:04;23.30;99.90
3727;DHT22;1879;45.876;12.300;2022-09-16T06:16:32;23.40;99.90
3727;DHT22;1879;45.876;12.300;2022-09-16T06:19:01;23.40;99.90
3727;DHT22;1879;45.876;12.300;2022-09-16T06:21:28;23.40;99.90
3727;DHT22;1879;45.876;12.300;2022-09-16T06:23:57;23.50;99.90
3727;DHT22;1879;45.876;12.300;2022-09-16T06:26:25;23.50;99.90
3727;DHT22;1879;45.876;12.300;2022-09-16T06:28:53;23.60;99.90
3727;DHT22;1879;45.876;12.300;2022-09-16T06:31:22;23.70;99.90
3727;DHT22;1879;45.876;12.300;2022-09-16T06:33:50;23.80;99.90
3727;DHT22;1879;45.876;12.300;2022-09-16T06:36:19;23.80;99.90
3727;DHT22;1879;45.876;12.300;2022-09-16T06:38:46;23.90;99.90
3727;DHT22;1879;45.876;12.300;2022-09-16T06:41:16;23.90;99.90
3727;DHT22;1879;45.876;12.300;2022-09-16T06:43:44;24.00;99.90
3727;DHT22;1879;45.876;12.300;2022-09-16T06:46:12;23.90;99.90
3727;DHT22;1879;45.876;12.300;2022-09-16T06:48:41;23.80;99.90
3727;DHT22;1879;45.876;12.300;2022-09-16T06:51:10;23.90;99.90
3727;DHT22;1879;45.876;12.300;2022-09-16T06:53:38;23.90;99.90
3727;DHT22;1879;45.876;12.300;2022-09-16T06:56:06;23.90;99.90
3727;DHT22;1879;45.876;12.300;2022-09-16T06:58:38;23.90;99.90
3727;DHT22;1879;45.876;12.300;2022-09-16T07:01:06;24.20;99.90
3727;DHT22;1879;45.876;12.300;2022-09-16T07:03:36;24.40;99.90
3727;DHT22;1879;45.876;12.300;2022-09-16T07:06:04;24.70;99.90
3727;DHT22;1879;45.876;12.300;2022-09-16T07:08:33;24.80;99.90
3727;DHT22;1879;45.876;12.300;2022-09-16T07:11:02;24.90;99.90
3727;DHT22;1879;45.876;12.300;2022-09-16T07:13:30;25.00;99.90
3727;DHT22;1879;45.876;12.300;2022-09-16T07:16:00;25.00;99.90
3727;DHT22;1879;45.876;12.300;2022-09-16T07:18:28;25.10;99.90
3727;DHT22;1879;45.876;12.300;2022-09-16T07:21:00;25.00;99.90
3727;DHT22;1879;45.876;12.300;2022-09-16T07:23:29;25.00;99.90
3727;DHT22;1879;45.876;12.300;2022-09-16T07:26:00;25.10;99.90
3727;DHT22;1879;45.876;12.300;2022-09-16T07:28:27;25.10;99.90
3727;DHT22;1879;45.876;12.300;2022-09-16T07:30:55;25.20;99.90
3727;DHT22;1879;45.876;12.300;2022-09-16T07:33:27;25.30;99.90
3727;DHT22;1879;45.876;12.300;2022-09-16T07:35:57;25.40;99.90
3727;DHT22;1879;45.876;12.300;2022-09-16T07:38:25;25.50;99.90
3727;DHT22;1879;45.876;12.300;2022-09-16T07:40:53;25.50;99.90
3727;DHT22;1879;45.876;12.300;2022-09-16T07:43:25;25.50;99.90
3727;DHT22;1879;45.876;12.300;2022-09-16T07:45:56;25.30;99.90
3727;DHT22;1879;45.876;12.300;2022-09-16T07:48:24;25.30;99.90
3727;DHT22;1879;45.876;12.300;2022-09-16T07:50:56;25.20;99.90
3727;DHT22;1879;45.876;12.300;2022-09-16T07:53:24;25.20;99.90
3727;DHT22;1879;45.876;12.300;2022-09-16T07:55:52;25.10;99.90
3727;DHT22;1879;45.876;12.300;2022-09-16T07:58:19;25.20;99.90
3727;DHT22;1879;45.876;12.300;2022-09-16T08:00:48;25.20;99.90
3727;DHT22;1879;45.876;12.300;2022-09-16T08:03:18;25.20;99.90
3727;DHT22;1879;45.876;12.300;2022-09-16T08:05:45;25.20;99.90
3727;DHT22;1879;45.876;12.300;2022-09-16T08:08:14;25.20;99.90
3727;DHT22;1879;45.876;12.300;2022-09-16T08:10:41;25.20;99.90
3727;DHT22;1879;45.876;12.300;2022-09-16T08:13:08;25.20;99.90
3727;DHT22;1879;45.876;12.300;2022-09-16T08:15:35;25.20;99.90
3727;DHT22;1879;45.876;12.300;2022-09-16T08:18:03;25.20;99.90
3727;DHT22;1879;45.876;12.300;2022-09-16T08:20:30;25.20;99.90
3727;DHT22;1879;45.876;12.300;2022-09-16T08:22:57;25.20;99.90
3727;DHT22;1879;45.876;12.300;2022-09-16T08:25:26;25.10;99.90
3727;DHT22;1879;45.876;12.300;2022-09-16T08:27:53;25.10;99.90
3727;DHT22;1879;45.876;12.300;2022-09-16T08:30:21;25.00;99.90
3727;DHT22;1879;45.876;12.300;2022-09-16T08:32:54;24.80;99.90
3727;DHT22;1879;45.876;12.300;2022-09-16T08:35:22;24.70;99.90
3727;DHT22;1879;45.876;12.300;2022-09-16T08:37:49;24.60;99.90
3727;DHT22;1879;45.876;12.300;2022-09-16T08:40:19;24.60;99.90
3727;DHT22;1879;45.876;12.300;2022-09-16T08:42:55;24.70;99.90
3727;DHT22;1879;45.876;12.300;2022-09-16T08:45:27;24.70;99.90
3727;DHT22;1879;45.876;12.300;2022-09-16T08:48:08;24.70;99.90
3727;DHT22;1879;45.876;12.300;2022-09-16T08:50:41;24.70;99.90
3727;DHT22;1879;45.876;12.300;2022-09-16T08:53:12;24.70;99.90
3727;DHT22;1879;45.876;12.300;2022-09-16T08:55:45;24.80;99.90
3727;DHT22;1879;45.876;12.300;2022-09-16T08:58:16;24.90;99.90
3727;DHT22;1879;45.876;12.300;2022-09-16T09:00:47;24.90;99.90
3727;DHT22;1879;45.876;12.300;2022-09-16T09:03:21;24.90;99.90
3727;DHT22;1879;45.876;12.300;2022-09-16T09:05:53;24.90;99.90
3727;DHT22;1879;45.876;12.300;2022-09-16T09:08:30;25.00;99.90
3727;DHT22;1879;45.876;12.300;2022-09-16T09:11:02;25.10;99.90
3727;DHT22;1879;45.876;12.300;2022-09-16T09:13:43;25.20;99.90
3727;DHT22;1879;45.876;12.300;2022-09-16T09:16:24;25.20;99.90
3727;DHT22;1879;45.876;12.300;2022-09-16T09:19:01;25.30;99.90
3727;DHT22;1879;45.876;12.300;2022-09-16T09:21:38;25.40;99.90
3727;DHT22;1879;45.876;12.300;2022-09-16T09:24:24;25.50;99.90
3727;DHT22;1879;45.876;12.300;2022-09-16T09:26:57;25.50;99.90
3727;DHT22;1879;45.876;12.300;2022-09-16T09:29:45;25.50;99.90
3727;DHT22;1879;45.876;12.300;2022-09-16T09:32:22;25.60;99.90
3727;DHT22;1879;45.876;12.300;2022-09-16T09:35:19;25.60;99.90
3727;DHT22;1879;45.876;12.300;2022-09-16T09:38:01;25.50;99.90
3727;DHT22;1879;45.876;12.300;2022-09-16T09:40:36;25.50;99.90
3727;DHT22;1879;45.876;12.300;2022-09-16T09:43:09;25.50;99.90
3727;DHT22;1879;45.876;12.300;2022-09-16T09:45:44;25.50;99.90
3727;DHT22;1879;45.876;12.300;2022-09-16T09:48:19;25.60;99.90
3727;DHT22;1879;45.876;12.300;2022-09-16T09:50:49;25.70;99.90
3727;DHT22;1879;45.876;12.300;2022-09-16T09:53:19;25.80;99.90
3727;DHT22;1879;45.876;12.300;2022-09-16T09:55:52;25.80;99.90
3727;DHT22;1879;45.876;12.300;2022-09-16T09:58:25;25.80;99.90
3727;DHT22;1879;45.876;12.300;2022-09-16T10:00:55;25.80;99.90
3727;DHT22;1879;45.876;12.300;2022-09-16T10:03:25;25.90;99.90
3727;DHT22;1879;45.876;12.300;2022-09-16T10:05:52;26.00;99.90
3727;DHT22;1879;45.876;12.300;2022-09-16T10:08:24;26.00;99.90
3727;DHT22;1879;45.876;12.300;2022-09-16T10:10:54;26.10;99.90
3727;DHT22;1879;45.876;12.300;2022-09-16T10:13:22;26.10;99.90
3727;DHT22;1879;45.876;12.300;2022-09-16T10:15:52;26.10;99.90
3727;DHT22;1879;45.876;12.300;2022-09-16T10:18:28;26.10;99.90
3727;DHT22;1879;45.876;12.300;2022-09-16T10:21:00;26.20;99.90
3727;DHT22;1879;45.876;12.300;2022-09-16T10:23:27;26.20;99.90
3727;DHT22;1879;45.876;12.300;2022-09-16T10:26:19;26.20;99.90
3727;DHT22;1879;45.876;12.300;2022-09-16T10:28:58;26.30;99.90
3727;DHT22;1879;45.876;12.300;2022-09-16T10:31:29;26.30;99.90
3727;DHT22;1879;45.876;12.300;2022-09-16T10:34:00;26.40;99.90
3727;DHT22;1879;45.876;12.300;2022-09-16T10:36:32;26.50;99.90
3727;DHT22;1879;45.876;12.300;2022-09-16T10:39:01;26.60;99.90
3727;DHT22;1879;45.876;12.300;2022-09-16T10:41:31;26.80;99.90
3727;DHT22;1879;45.876;12.300;2022-09-16T10:44:01;26.80;99.90
3727;DHT22;1879;45.876;12.300;2022-09-16T10:46:30;27.00;99.70
3727;DHT22;1879;45.876;12.300;2022-09-16T10:49:08;27.10;99.90
3727;DHT22;1879;45.876;12.300;2022-09-16T10:51:36;27.30;99.50
3727;DHT22;1879;45.876;12.300;2022-09-16T10:54:04;27.40;99.10
3727;DHT22;1879;45.876;12.300;2022-09-16T10:56:34;27.50;99.20
3727;DHT22;1879;45.876;12.300;2022-09-16T10:59:13;27.50;98.60
3727;DHT22;1879;45.876;12.300;2022-09-16T11:01:44;27.50;98.40
3727;DHT22;1879;45.876;12.300;2022-09-16T11:04:40;27.60;98.50
3727;DHT22;1879;45.876;12.300;2022-09-16T11:07:20;27.30;97.40
3727;DHT22;1879;45.876;12.300;2022-09-16T11:09:56;27.40;97.60
3727;DHT22;1879;45.876;12.300;2022-09-16T11:15:34;28.10;97.10
3727;DHT22;1879;45.876;12.300;2022-09-16T11:18:17;28.30;96.60
3727;DHT22;1879;45.876;12.300;2022-09-16T11:21:09;28.50;95.60
3727;DHT22;1879;45.876;12.300;2022-09-16T11:23:52;28.40;95.60
3727;DHT22;1879;45.876;12.300;2022-09-16T11:26:28;28.70;95.70
3727;DHT22;1879;45.876;12.300;2022-09-16T11:31:51;29.90;94.40
3727;DHT22;1879;45.876;12.300;2022-09-16T11:34:30;30.50;92.90
3727;DHT22;1879;45.876;12.300;2022-09-16T11:37:07;31.40;92.10
3727;DHT22;1879;45.876;12.300;2022-09-16T11:39:50;32.30;91.20
3727;DHT22;1879;45.876;12.300;2022-09-16T11:42:26;33.40;89.10
3727;DHT22;1879;45.876;12.300;2022-09-16T11:45:02;34.30;85.30
3727;DHT22;1879;45.876;12.300;2022-09-16T11:47:47;35.00;81.00
3727;DHT22;1879;45.876;12.300;2022-09-16T11:50:26;35.80;77.40
3727;DHT22;1879;45.876;12.300;2022-09-16T11:55:51;36.30;71.50
3727;DHT22;1879;45.876;12.300;2022-09-16T11:58:27;36.10;70.00
3727;DHT22;1879;45.876;12.300;2022-09-16T12:01:00;36.30;69.50
3727;DHT22;1879;45.876;12.300;2022-09-16T12:03:34;36.50;67.60
3727;DHT22;1879;45.876;12.300;2022-09-16T12:06:07;37.10;67.60
3727;DHT22;1879;45.876;12.300;2022-09-16T12:08:47;37.50;65.40
3727;DHT22;1879;45.876;12.300;2022-09-16T12:11:20;37.50;63.30
3727;DHT22;1879;45.876;12.300;2022-09-16T12:13:51;37.40;63.70
3727;DHT22;1879;45.876;12.300;2022-09-16T12:16:25;38.00;64.00
3727;DHT22;1879;45.876;12.300;2022-09-16T12:18:59;38.70;61.70
3727;DHT22;1879;45.876;12.300;2022-09-16T12:21:30;38.70;60.40
3727;DHT22;1879;45.876;12.300;2022-09-16T12:24:02;38.60;59.40
3727;DHT22;1879;45.876;12.300;2022-09-16T12:26:33;38.60;58.60
3727;DHT22;1879;45.876;12.300;2022-09-16T12:29:05;38.50;58.40
3727;DHT22;1879;45.876;12.300;2022-09-16T12:31:39;38.80;59.40
3727;DHT22;1879;45.876;12.300;2022-09-16T12:34:12;39.10;58.20
3727;DHT22;1879;45.876;12.300;2022-09-16T12:36:43;38.90;58.40
3727;DHT22;1879;45.876;12.300;2022-09-16T12:39:13;38.60;57.20
3727;DHT22;1879;45.876;12.300;2022-09-16T12:42:07;37.50;57.50
3727;DHT22;1879;45.876;12.300;2022-09-16T12:45:00;36.30;59.20
3727;DHT22;1879;45.876;12.300;2022-09-16T12:47:59;35.80;61.40
3727;DHT22;1879;45.876;12.300;2022-09-16T12:50:52;36.60;60.30
3727;DHT22;1879;45.876;12.300;2022-09-16T12:53:44;36.20;60.80
3727;DHT22;1879;45.876;12.300;2022-09-16T12:56:25;35.60;61.20
3727;DHT22;1879;45.876;12.300;2022-09-16T12:59:16;35.40;61.70
3727;DHT22;1879;45.876;12.300;2022-09-16T13:01:49;35.10;61.90
3727;DHT22;1879;45.876;12.300;2022-09-16T13:04:21;35.80;62.60
3727;DHT22;1879;45.876;12.300;2022-09-16T13:06:51;37.00;60.50
3727;DHT22;1879;45.876;12.300;2022-09-16T13:09:23;36.40;59.90
3727;DHT22;1879;45.876;12.300;2022-09-16T13:11:57;35.90;60.40
3727;DHT22;1879;45.876;12.300;2022-09-16T13:14:27;35.90;59.60
3727;DHT22;1879;45.876;12.300;2022-09-16T13:16:58;35.20;60.40
3727;DHT22;1879;45.876;12.300;2022-09-16T13:19:34;34.50;61.10
3727;DHT22;1879;45.876;12.300;2022-09-16T13:22:16;33.60;61.60
3727;DHT22;1879;45.876;12.300;2022-09-16T13:24:47;33.00;63.60
3727;DHT22;1879;45.876;12.300;2022-09-16T13:27:38;32.60;65.40
3727;DHT22;1879;45.876;12.300;2022-09-16T13:30:25;32.40;65.20
3727;DHT22;1879;45.876;12.300;2022-09-16T13:33:01;32.30;66.30
3727;DHT22;1879;45.876;12.300;2022-09-16T13:35:37;32.20;68.10
3727;DHT22;1879;45.876;12.300;2022-09-16T13:38:34;31.70;68.70
3727;DHT22;1879;45.876;12.300;2022-09-16T13:41:05;31.00;70.40
3727;DHT22;1879;45.876;12.300;2022-09-16T13:43:48;30.60;71.50
3727;DHT22;1879;45.876;12.300;2022-09-16T13:46:27;30.40;75.10
3727;DHT22;1879;45.876;12.300;2022-09-16T13:49:14;30.20;74.80
3727;DHT22;1879;45.876;12.300;2022-09-16T13:51:44;30.10;76.40
3727;DHT22;1879;45.876;12.300;2022-09-16T13:54:26;30.10;76.90
3727;DHT22;1879;45.876;12.300;2022-09-16T13:57:26;30.10;76.90
3727;DHT22;1879;45.876;12.300;2022-09-16T14:00:12;30.30;79.50
3727;DHT22;1879;45.876;12.300;2022-09-16T14:02:59;30.10;78.60
3727;DHT22;1879;45.876;12.300;2022-09-16T14:06:10;30.10;80.20
3727;DHT22;1879;45.876;12.300;2022-09-16T14:08:47;29.90;80.80
3727;DHT22;1879;45.876;12.300;2022-09-16T14:11:21;29.80;79.70
3727;DHT22;1879;45.876;12.300;2022-09-16T14:13:53;29.70;80.20
3727;DHT22;1879;45.876;12.300;2022-09-16T14:16:26;29.50;80.20
3727;DHT22;1879;45.876;12.300;2022-09-16T14:18:58;29.40;79.90
3727;DHT22;1879;45.876;12.300;2022-09-16T14:21:27;29.40;80.40
3727;DHT22;1879;45.876;12.300;2022-09-16T14:23:54;29.60;82.00
3727;DHT22;1879;45.876;12.300;2022-09-16T14:26:22;29.90;81.50
3727;DHT22;1879;45.876;12.300;2022-09-16T14:29:00;30.20;80.90
3727;DHT22;1879;45.876;12.300;2022-09-16T14:31:31;30.40;79.80
3727;DHT22;1879;45.876;12.300;2022-09-16T14:34:00;30.50;80.00
3727;DHT22;1879;45.876;12.300;2022-09-16T14:36:31;30.10;79.60
3727;DHT22;1879;45.876;12.300;2022-09-16T14:39:02;29.80;80.80
3727;DHT22;1879;45.876;12.300;2022-09-16T14:41:34;29.60;81.00
3727;DHT22;1879;45.876;12.300;2022-09-16T14:44:07;29.50;81.90
3727;DHT22;1879;45.876;12.300;2022-09-16T14:46:41;29.20;81.60
3727;DHT22;1879;45.876;12.300;2022-09-16T14:49:09;29.10;82.90
3727;DHT22;1879;45.876;12.300;2022-09-16T14:51:38;29.00;83.20
3727;DHT22;1879;45.876;12.300;2022-09-16T14:54:15;29.20;84.30
3727;DHT22;1879;45.876;12.300;2022-09-16T14:56:54;29.40;84.20
3727;DHT22;1879;45.876;12.300;2022-09-16T14:59:23;29.40;83.30
3727;DHT22;1879;45.876;12.300;2022-09-16T15:01:54;29.70;84.20
3727;DHT22;1879;45.876;12.300;2022-09-16T15:04:25;29.80;84.20
3727;DHT22;1879;45.876;12.300;2022-09-16T15:06:58;29.80;83.50
3727;DHT22;1879;45.876;12.300;2022-09-16T15:09:32;29.80;84.20
3727;DHT22;1879;45.876;12.300;2022-09-16T15:12:02;29.80;85.10
3727;DHT22;1879;45.876;12.300;2022-09-16T15:14:29;29.50;83.40
3727;DHT22;1879;45.876;12.300;2022-09-16T15:17:00;29.10;83.60
3727;DHT22;1879;45.876;12.300;2022-09-16T15:19:32;28.70;84.60
3727;DHT22;1879;45.876;12.300;2022-09-16T15:22:03;28.50;86.70
3727;DHT22;1879;45.876;12.300;2022-09-16T15:24:33;28.20;86.00
3727;DHT22;1879;45.876;12.300;2022-09-16T15:27:06;28.20;88.20
3727;DHT22;1879;45.876;12.300;2022-09-16T15:29:34;28.10;87.70
3727;DHT22;1879;45.876;12.300;2022-09-16T15:32:14;28.00;87.50
3727;DHT22;1879;45.876;12.300;2022-09-16T15:34:42;27.90;90.10
3727;DHT22;1879;45.876;12.300;2022-09-16T15:37:30;28.00;89.30
3727;DHT22;1879;45.876;12.300;2022-09-16T15:40:08;28.00;90.00
3727;DHT22;1879;45.876;12.300;2022-09-16T15:42:36;28.00;90.10
3727;DHT22;1879;45.876;12.300;2022-09-16T15:45:14;28.00;90.40
3727;DHT22;1879;45.876;12.300;2022-09-16T15:47:53;27.90;90.70
3727;DHT22;1879;45.876;12.300;2022-09-16T15:50:22;27.90;91.20
3727;DHT22;1879;45.876;12.300;2022-09-16T15:52:53;27.80;90.80
3727;DHT22;1879;45.876;12.300;2022-09-16T15:55:28;27.80;91.30
3727;DHT22;1879;45.876;12.300;2022-09-16T15:57:59;27.80;91.60
3727;DHT22;1879;45.876;12.300;2022-09-16T16:00:27;27.80;91.50
3727;DHT22;1879;45.876;12.300;2022-09-16T16:02:56;27.80;91.50
3727;DHT22;1879;45.876;12.300;2022-09-16T16:05:27;27.70;91.40
3727;DHT22;1879;45.876;12.300;2022-09-16T16:07:57;27.70;91.50
3727;DHT22;1879;45.876;12.300;2022-09-16T16:10:25;27.70;91.70
3727;DHT22;1879;45.876;12.300;2022-09-16T16:12:55;27.60;91.80
3727;DHT22;1879;45.876;12.300;2022-09-16T16:15:24;27.50;91.80
3727;DHT22;1879;45.876;12.300;2022-09-16T16:17:59;27.50;91.80
3727;DHT22;1879;45.876;12.300;2022-09-16T16:20:27;27.50;91.80
3727;DHT22;1879;45.876;12.300;2022-09-16T16:22:54;27.40;91.90
3727;DHT22;1879;45.876;12.300;2022-09-16T16:25:21;27.40;91.70
3727;DHT22;1879;45.876;12.300;2022-09-16T16:27:48;27.40;91.80
3727;DHT22;1879;45.876;12.300;2022-09-16T16:30:16;27.30;91.60
3727;DHT22;1879;45.876;12.300;2022-09-16T16:32:43;27.20;91.80